Terminal Aerodrome Forecast
Issued by NWS

Home | Current Version | Previous Version | Graphics & Text | Print | Product List | Glossary On
Versions: 1 2 3 4 5 6 7 8 9 10 11 12 13 14 15 16 17 18 19 20
044
FTUS43 KABR 160520
TAFATY
TAF
KATY 160520Z 1606/1706 16003KT P6SM BKN200
      TEMPO 1606/1610 3SM BR
     FM162100 34004KT P6SM SCT200=

USA.gov is the U.S. government's official web portal to all federal, state and local government web resources and services.